sensor_id;sensor_type;location;lat;lon;timestamp;P1;durP1;ratioP1;P2;durP2;ratioP2
54408;SDS011;40315;48.620;9.828;2022-10-20T00:02:02;13.55;;;8.90;;
54408;SDS011;40315;48.620;9.828;2022-10-20T00:04:29;13.52;;;9.00;;
54408;SDS011;40315;48.620;9.828;2022-10-20T00:07:00;13.10;;;8.88;;
54408;SDS011;40315;48.620;9.828;2022-10-20T00:09:27;15.23;;;9.38;;
54408;SDS011;40315;48.620;9.828;2022-10-20T00:11:56;15.80;;;9.32;;
54408;SDS011;40315;48.620;9.828;2022-10-20T00:14:25;16.30;;;9.70;;
54408;SDS011;40315;48.620;9.828;2022-10-20T00:16:54;14.02;;;9.30;;
54408;SDS011;40315;48.620;9.828;2022-10-20T00:19:22;15.77;;;10.02;;
54408;SDS011;40315;48.620;9.828;2022-10-20T00:21:49;15.43;;;9.15;;
54408;SDS011;40315;48.620;9.828;2022-10-20T00:24:17;13.95;;;9.70;;
54408;SDS011;40315;48.620;9.828;2022-10-20T00:26:45;15.32;;;9.93;;
54408;SDS011;40315;48.620;9.828;2022-10-20T00:29:15;14.68;;;9.00;;
54408;SDS011;40315;48.620;9.828;2022-10-20T00:31:42;11.70;;;8.63;;
54408;SDS011;40315;48.620;9.828;2022-10-20T00:34:11;12.88;;;9.07;;
54408;SDS011;40315;48.620;9.828;2022-10-20T00:36:38;13.77;;;9.45;;
54408;SDS011;40315;48.620;9.828;2022-10-20T00:39:05;13.77;;;9.95;;
54408;SDS011;40315;48.620;9.828;2022-10-20T00:41:34;15.27;;;9.30;;
54408;SDS011;40315;48.620;9.828;2022-10-20T00:44:02;16.15;;;9.68;;
54408;SDS011;40315;48.620;9.828;2022-10-20T00:47:08;15.75;;;9.90;;
54408;SDS011;40315;48.620;9.828;2022-10-20T00:49:36;13.75;;;9.43;;
54408;SDS011;40315;48.620;9.828;2022-10-20T00:52:03;16.08;;;10.32;;
54408;SDS011;40315;48.620;9.828;2022-10-20T00:54:31;16.23;;;10.45;;
54408;SDS011;40315;48.620;9.828;2022-10-20T00:57:00;14.73;;;10.18;;
54408;SDS011;40315;48.620;9.828;2022-10-20T00:59:27;15.15;;;10.18;;
54408;SDS011;40315;48.620;9.828;2022-10-20T01:01:57;15.20;;;9.82;;
54408;SDS011;40315;48.620;9.828;2022-10-20T01:04:27;15.55;;;10.68;;
54408;SDS011;40315;48.620;9.828;2022-10-20T01:06:57;17.33;;;10.82;;
54408;SDS011;40315;48.620;9.828;2022-10-20T01:09:24;15.25;;;10.23;;
54408;SDS011;40315;48.620;9.828;2022-10-20T01:11:53;18.63;;;10.60;;
54408;SDS011;40315;48.620;9.828;2022-10-20T01:14:32;16.35;;;10.18;;
54408;SDS011;40315;48.620;9.828;2022-10-20T01:17:07;15.40;;;10.63;;
54408;SDS011;40315;48.620;9.828;2022-10-20T01:22:51;16.20;;;9.82;;
54408;SDS011;40315;48.620;9.828;2022-10-20T01:25:40;15.88;;;10.40;;
54408;SDS011;40315;48.620;9.828;2022-10-20T01:28:21;13.73;;;9.68;;
54408;SDS011;40315;48.620;9.828;2022-10-20T01:30:56;13.38;;;9.52;;
54408;SDS011;40315;48.620;9.828;2022-10-20T01:33:30;14.77;;;9.70;;
54408;SDS011;40315;48.620;9.828;2022-10-20T01:36:03;14.43;;;10.00;;
54408;SDS011;40315;48.620;9.828;2022-10-20T01:38:38;14.93;;;10.13;;
54408;SDS011;40315;48.620;9.828;2022-10-20T01:47:55;17.92;;;11.02;;
54408;SDS011;40315;48.620;9.828;2022-10-20T01:50:24;16.90;;;10.68;;
54408;SDS011;40315;48.620;9.828;2022-10-20T01:52:54;18.75;;;11.85;;
54408;SDS011;40315;48.620;9.828;2022-10-20T01:55:22;19.27;;;10.63;;
54408;SDS011;40315;48.620;9.828;2022-10-20T01:57:55;21.80;;;11.40;;
54408;SDS011;40315;48.620;9.828;2022-10-20T02:00:34;21.95;;;13.02;;
54408;SDS011;40315;48.620;9.828;2022-10-20T02:03:08;19.38;;;11.85;;
54408;SDS011;40315;48.620;9.828;2022-10-20T02:05:52;25.00;;;13.82;;
54408;SDS011;40315;48.620;9.828;2022-10-20T02:08:29;23.38;;;13.02;;
54408;SDS011;40315;48.620;9.828;2022-10-20T02:11:03;23.95;;;13.50;;
54408;SDS011;40315;48.620;9.828;2022-10-20T02:13:34;26.52;;;14.73;;
54408;SDS011;40315;48.620;9.828;2022-10-20T02:16:08;26.48;;;14.00;;
54408;SDS011;40315;48.620;9.828;2022-10-20T02:18:41;29.42;;;14.73;;
54408;SDS011;40315;48.620;9.828;2022-10-20T02:21:10;29.02;;;14.98;;
54408;SDS011;40315;48.620;9.828;2022-10-20T02:23:38;29.08;;;14.82;;
54408;SDS011;40315;48.620;9.828;2022-10-20T02:26:11;30.90;;;15.57;;
54408;SDS011;40315;48.620;9.828;2022-10-20T02:28:43;28.67;;;14.80;;
54408;SDS011;40315;48.620;9.828;2022-10-20T02:31:13;29.80;;;15.63;;
54408;SDS011;40315;48.620;9.828;2022-10-20T02:33:43;30.27;;;16.08;;
54408;SDS011;40315;48.620;9.828;2022-10-20T02:36:12;31.27;;;15.80;;
54408;SDS011;40315;48.620;9.828;2022-10-20T02:38:42;33.97;;;16.83;;
54408;SDS011;40315;48.620;9.828;2022-10-20T02:41:09;30.95;;;17.55;;
54408;SDS011;40315;48.620;9.828;2022-10-20T02:43:36;32.92;;;16.73;;
54408;SDS011;40315;48.620;9.828;2022-10-20T02:46:03;31.23;;;16.48;;
54408;SDS011;40315;48.620;9.828;2022-10-20T02:48:31;37.22;;;16.73;;
54408;SDS011;40315;48.620;9.828;2022-10-20T02:50:59;33.17;;;16.50;;
54408;SDS011;40315;48.620;9.828;2022-10-20T02:53:27;28.42;;;16.17;;
54408;SDS011;40315;48.620;9.828;2022-10-20T02:55:53;31.35;;;17.27;;
54408;SDS011;40315;48.620;9.828;2022-10-20T02:58:20;29.02;;;16.38;;
54408;SDS011;40315;48.620;9.828;2022-10-20T03:00:50;29.95;;;16.17;;
54408;SDS011;40315;48.620;9.828;2022-10-20T03:03:17;34.83;;;16.70;;
54408;SDS011;40315;48.620;9.828;2022-10-20T03:05:44;33.42;;;17.45;;
54408;SDS011;40315;48.620;9.828;2022-10-20T03:08:13;31.15;;;16.90;;
54408;SDS011;40315;48.620;9.828;2022-10-20T03:10:40;31.65;;;16.88;;
54408;SDS011;40315;48.620;9.828;2022-10-20T03:13:10;33.08;;;17.60;;
54408;SDS011;40315;48.620;9.828;2022-10-20T03:15:40;31.52;;;16.23;;
54408;SDS011;40315;48.620;9.828;2022-10-20T03:18:10;25.35;;;14.73;;
54408;SDS011;40315;48.620;9.828;2022-10-20T03:20:37;28.48;;;15.38;;
54408;SDS011;40315;48.620;9.828;2022-10-20T03:23:04;24.08;;;14.63;;
54408;SDS011;40315;48.620;9.828;2022-10-20T03:25:32;24.77;;;14.98;;
54408;SDS011;40315;48.620;9.828;2022-10-20T03:27:59;26.23;;;14.70;;
54408;SDS011;40315;48.620;9.828;2022-10-20T03:30:26;28.02;;;15.23;;
54408;SDS011;40315;48.620;9.828;2022-10-20T03:32:54;27.00;;;14.60;;
54408;SDS011;40315;48.620;9.828;2022-10-20T03:35:21;27.02;;;15.80;;
54408;SDS011;40315;48.620;9.828;2022-10-20T03:37:51;21.65;;;14.13;;
54408;SDS011;40315;48.620;9.828;2022-10-20T03:40:17;26.90;;;15.50;;
54408;SDS011;40315;48.620;9.828;2022-10-20T03:42:46;25.35;;;15.23;;
54408;SDS011;40315;48.620;9.828;2022-10-20T03:45:13;28.05;;;15.57;;
54408;SDS011;40315;48.620;9.828;2022-10-20T03:47:40;24.10;;;15.07;;
54408;SDS011;40315;48.620;9.828;2022-10-20T03:50:07;24.60;;;14.25;;
54408;SDS011;40315;48.620;9.828;2022-10-20T03:52:35;24.20;;;14.52;;
54408;SDS011;40315;48.620;9.828;2022-10-20T03:55:05;23.65;;;14.68;;
54408;SDS011;40315;48.620;9.828;2022-10-20T03:57:32;25.92;;;15.35;;
54408;SDS011;40315;48.620;9.828;2022-10-20T04:00:00;26.85;;;15.30;;
54408;SDS011;40315;48.620;9.828;2022-10-20T04:02:37;23.85;;;13.95;;
54408;SDS011;40315;48.620;9.828;2022-10-20T04:05:07;21.55;;;13.95;;
54408;SDS011;40315;48.620;9.828;2022-10-20T04:07:37;22.75;;;13.93;;
54408;SDS011;40315;48.620;9.828;2022-10-20T04:10:04;23.80;;;14.75;;
54408;SDS011;40315;48.620;9.828;2022-10-20T04:12:32;25.40;;;14.63;;
54408;SDS011;40315;48.620;9.828;2022-10-20T04:14:59;22.63;;;13.25;;
54408;SDS011;40315;48.620;9.828;2022-10-20T04:17:27;21.42;;;13.82;;
54408;SDS011;40315;48.620;9.828;2022-10-20T04:19:54;20.95;;;13.32;;
54408;SDS011;40315;48.620;9.828;2022-10-20T04:22:23;21.52;;;14.07;;
54408;SDS011;40315;48.620;9.828;2022-10-20T04:24:50;19.77;;;13.02;;
54408;SDS011;40315;48.620;9.828;2022-10-20T04:27:17;20.73;;;12.90;;
54408;SDS011;40315;48.620;9.828;2022-10-20T04:29:45;24.10;;;13.82;;
54408;SDS011;40315;48.620;9.828;2022-10-20T04:32:13;20.10;;;12.60;;
54408;SDS011;40315;48.620;9.828;2022-10-20T04:34:40;20.08;;;13.45;;
54408;SDS011;40315;48.620;9.828;2022-10-20T04:37:07;22.20;;;13.32;;
54408;SDS011;40315;48.620;9.828;2022-10-20T04:39:34;21.50;;;13.30;;
54408;SDS011;40315;48.620;9.828;2022-10-20T04:42:01;17.95;;;11.65;;
54408;SDS011;40315;48.620;9.828;2022-10-20T04:44:28;21.35;;;11.95;;
54408;SDS011;40315;48.620;9.828;2022-10-20T04:46:55;19.73;;;12.63;;
54408;SDS011;40315;48.620;9.828;2022-10-20T04:49:26;18.95;;;12.30;;
54408;SDS011;40315;48.620;9.828;2022-10-20T04:51:53;17.15;;;11.90;;
54408;SDS011;40315;48.620;9.828;2022-10-20T04:54:20;18.08;;;12.23;;
54408;SDS011;40315;48.620;9.828;2022-10-20T04:56:47;19.45;;;12.52;;
54408;SDS011;40315;48.620;9.828;2022-10-20T04:59:14;18.30;;;12.07;;
54408;SDS011;40315;48.620;9.828;2022-10-20T05:01:43;16.63;;;11.23;;
54408;SDS011;40315;48.620;9.828;2022-10-20T05:04:10;16.80;;;11.52;;
54408;SDS011;40315;48.620;9.828;2022-10-20T05:06:39;17.60;;;12.13;;
54408;SDS011;40315;48.620;9.828;2022-10-20T05:09:06;17.30;;;11.38;;
54408;SDS011;40315;48.620;9.828;2022-10-20T05:11:35;18.25;;;11.80;;
54408;SDS011;40315;48.620;9.828;2022-10-20T05:14:02;17.52;;;11.60;;
54408;SDS011;40315;48.620;9.828;2022-10-20T05:16:29;15.38;;;10.70;;
54408;SDS011;40315;48.620;9.828;2022-10-20T05:18:56;16.80;;;11.80;;
54408;SDS011;40315;48.620;9.828;2022-10-20T05:21:24;18.85;;;11.45;;
54408;SDS011;40315;48.620;9.828;2022-10-20T05:23:55;19.60;;;11.52;;
54408;SDS011;40315;48.620;9.828;2022-10-20T05:26:24;19.25;;;12.20;;
54408;SDS011;40315;48.620;9.828;2022-10-20T05:28:54;18.48;;;11.60;;
54408;SDS011;40315;48.620;9.828;2022-10-20T05:31:21;16.75;;;11.57;;
54408;SDS011;40315;48.620;9.828;2022-10-20T05:33:52;18.58;;;12.02;;
54408;SDS011;40315;48.620;9.828;2022-10-20T05:36:21;18.23;;;12.20;;
54408;SDS011;40315;48.620;9.828;2022-10-20T05:38:50;19.83;;;12.32;;
54408;SDS011;40315;48.620;9.828;2022-10-20T05:41:24;19.38;;;12.98;;
54408;SDS011;40315;48.620;9.828;2022-10-20T05:43:52;20.48;;;13.57;;
54408;SDS011;40315;48.620;9.828;2022-10-20T05:46:22;20.90;;;13.25;;
54408;SDS011;40315;48.620;9.828;2022-10-20T05:48:51;21.17;;;13.40;;
54408;SDS011;40315;48.620;9.828;2022-10-20T05:51:20;21.98;;;13.50;;
54408;SDS011;40315;48.620;9.828;2022-10-20T05:53:48;21.17;;;13.23;;
54408;SDS011;40315;48.620;9.828;2022-10-20T05:56:17;19.23;;;12.77;;
54408;SDS011;40315;48.620;9.828;2022-10-20T05:58:47;20.63;;;12.93;;
54408;SDS011;40315;48.620;9.828;2022-10-20T06:01:15;21.23;;;13.02;;
54408;SDS011;40315;48.620;9.828;2022-10-20T06:03:48;20.38;;;13.15;;
54408;SDS011;40315;48.620;9.828;2022-10-20T06:06:17;20.58;;;12.68;;
54408;SDS011;40315;48.620;9.828;2022-10-20T06:08:45;20.63;;;13.27;;
54408;SDS011;40315;48.620;9.828;2022-10-20T06:11:13;20.17;;;12.50;;
54408;SDS011;40315;48.620;9.828;2022-10-20T06:13:42;19.80;;;12.77;;
54408;SDS011;40315;48.620;9.828;2022-10-20T06:16:14;19.08;;;12.20;;
54408;SDS011;40315;48.620;9.828;2022-10-20T06:18:43;19.75;;;12.70;;
54408;SDS011;40315;48.620;9.828;2022-10-20T06:21:11;18.77;;;12.73;;
54408;SDS011;40315;48.620;9.828;2022-10-20T06:23:39;18.77;;;11.93;;
54408;SDS011;40315;48.620;9.828;2022-10-20T06:26:10;22.42;;;12.38;;
54408;SDS011;40315;48.620;9.828;2022-10-20T06:28:39;18.13;;;11.90;;
54408;SDS011;40315;48.620;9.828;2022-10-20T06:31:10;19.10;;;11.98;;
54408;SDS011;40315;48.620;9.828;2022-10-20T06:33:40;19.15;;;11.88;;
54408;SDS011;40315;48.620;9.828;2022-10-20T06:36:07;18.58;;;12.20;;
54408;SDS011;40315;48.620;9.828;2022-10-20T06:38:34;16.48;;;10.93;;
54408;SDS011;40315;48.620;9.828;2022-10-20T06:41:02;16.98;;;11.48;;
54408;SDS011;40315;48.620;9.828;2022-10-20T06:43:30;18.90;;;11.82;;
54408;SDS011;40315;48.620;9.828;2022-10-20T06:45:58;16.33;;;11.68;;
54408;SDS011;40315;48.620;9.828;2022-10-20T06:48:27;20.13;;;11.77;;
54408;SDS011;40315;48.620;9.828;2022-10-20T06:50:56;15.38;;;11.15;;
54408;SDS011;40315;48.620;9.828;2022-10-20T06:53:25;17.85;;;11.70;;
54408;SDS011;40315;48.620;9.828;2022-10-20T06:55:56;18.38;;;11.95;;
54408;SDS011;40315;48.620;9.828;2022-10-20T06:58:23;16.77;;;11.45;;
54408;SDS011;40315;48.620;9.828;2022-10-20T07:00:56;17.30;;;11.73;;
54408;SDS011;40315;48.620;9.828;2022-10-20T07:03:24;17.58;;;12.15;;
54408;SDS011;40315;48.620;9.828;2022-10-20T07:05:52;16.55;;;11.73;;
54408;SDS011;40315;48.620;9.828;2022-10-20T07:08:21;17.55;;;12.15;;
54408;SDS011;40315;48.620;9.828;2022-10-20T07:10:56;16.88;;;11.52;;
54408;SDS011;40315;48.620;9.828;2022-10-20T07:13:24;18.05;;;11.80;;
54408;SDS011;40315;48.620;9.828;2022-10-20T07:15:52;18.48;;;13.10;;
54408;SDS011;40315;48.620;9.828;2022-10-20T07:18:19;17.05;;;12.07;;
54408;SDS011;40315;48.620;9.828;2022-10-20T07:20:49;15.65;;;11.05;;
54408;SDS011;40315;48.620;9.828;2022-10-20T07:23:16;17.92;;;11.65;;
54408;SDS011;40315;48.620;9.828;2022-10-20T07:25:45;16.20;;;11.25;;
54408;SDS011;40315;48.620;9.828;2022-10-20T07:28:14;16.95;;;11.65;;
54408;SDS011;40315;48.620;9.828;2022-10-20T07:30:41;16.55;;;12.05;;
54408;SDS011;40315;48.620;9.828;2022-10-20T07:33:08;16.60;;;12.02;;
54408;SDS011;40315;48.620;9.828;2022-10-20T07:35:35;15.85;;;11.77;;
54408;SDS011;40315;48.620;9.828;2022-10-20T07:38:02;17.27;;;11.85;;
54408;SDS011;40315;48.620;9.828;2022-10-20T07:40:29;14.95;;;11.32;;
54408;SDS011;40315;48.620;9.828;2022-10-20T07:42:58;15.85;;;11.63;;
54408;SDS011;40315;48.620;9.828;2022-10-20T07:45:25;14.65;;;10.93;;
54408;SDS011;40315;48.620;9.828;2022-10-20T07:47:53;15.57;;;10.95;;
54408;SDS011;40315;48.620;9.828;2022-10-20T07:50:20;15.32;;;11.00;;
54408;SDS011;40315;48.620;9.828;2022-10-20T07:52:49;13.48;;;10.25;;
54408;SDS011;40315;48.620;9.828;2022-10-20T07:55:19;14.13;;;10.88;;
54408;SDS011;40315;48.620;9.828;2022-10-20T07:57:46;14.82;;;10.48;;
54408;SDS011;40315;48.620;9.828;2022-10-20T08:00:15;15.43;;;11.00;;
54408;SDS011;40315;48.620;9.828;2022-10-20T08:02:42;15.63;;;10.75;;
54408;SDS011;40315;48.620;9.828;2022-10-20T08:05:11;13.75;;;10.35;;
54408;SDS011;40315;48.620;9.828;2022-10-20T08:07:38;14.70;;;10.65;;
54408;SDS011;40315;48.620;9.828;2022-10-20T08:10:05;15.80;;;11.70;;
54408;SDS011;40315;48.620;9.828;2022-10-20T08:12:33;16.35;;;11.45;;
54408;SDS011;40315;48.620;9.828;2022-10-20T08:15:03;15.30;;;11.65;;
54408;SDS011;40315;48.620;9.828;2022-10-20T08:17:32;16.10;;;10.98;;
54408;SDS011;40315;48.620;9.828;2022-10-20T08:19:59;13.85;;;10.60;;
54408;SDS011;40315;48.620;9.828;2022-10-20T08:22:26;13.90;;;10.50;;
54408;SDS011;40315;48.620;9.828;2022-10-20T08:24:54;14.48;;;11.20;;
54408;SDS011;40315;48.620;9.828;2022-10-20T08:27:21;13.40;;;10.57;;
54408;SDS011;40315;48.620;9.828;2022-10-20T08:29:50;15.00;;;10.80;;
54408;SDS011;40315;48.620;9.828;2022-10-20T08:32:17;15.55;;;11.35;;
54408;SDS011;40315;48.620;9.828;2022-10-20T08:34:48;15.25;;;11.15;;
54408;SDS011;40315;48.620;9.828;2022-10-20T08:37:18;15.98;;;11.45;;
54408;SDS011;40315;48.620;9.828;2022-10-20T08:39:45;15.05;;;11.55;;
54408;SDS011;40315;48.620;9.828;2022-10-20T08:42:12;17.00;;;12.65;;
54408;SDS011;40315;48.620;9.828;2022-10-20T08:44:40;15.45;;;11.35;;
54408;SDS011;40315;48.620;9.828;2022-10-20T08:47:21;15.52;;;11.15;;
54408;SDS011;40315;48.620;9.828;2022-10-20T08:49:54;16.55;;;11.23;;
54408;SDS011;40315;48.620;9.828;2022-10-20T08:52:22;14.90;;;11.35;;
54408;SDS011;40315;48.620;9.828;2022-10-20T08:54:51;14.43;;;10.18;;
54408;SDS011;40315;48.620;9.828;2022-10-20T08:57:21;14.15;;;11.32;;
54408;SDS011;40315;48.620;9.828;2022-10-20T08:59:50;14.45;;;11.10;;
54408;SDS011;40315;48.620;9.828;2022-10-20T09:02:19;14.93;;;11.48;;
54408;SDS011;40315;48.620;9.828;2022-10-20T09:04:48;14.40;;;11.18;;
54408;SDS011;40315;48.620;9.828;2022-10-20T09:07:22;17.98;;;12.27;;
54408;SDS011;40315;48.620;9.828;2022-10-20T09:09:59;18.27;;;12.30;;
54408;SDS011;40315;48.620;9.828;2022-10-20T09:12:30;17.45;;;12.30;;
54408;SDS011;40315;48.620;9.828;2022-10-20T09:14:58;17.88;;;12.55;;
54408;SDS011;40315;48.620;9.828;2022-10-20T09:17:29;17.55;;;12.40;;
54408;SDS011;40315;48.620;9.828;2022-10-20T09:19:56;16.02;;;11.60;;
54408;SDS011;40315;48.620;9.828;2022-10-20T09:22:27;16.77;;;12.02;;
54408;SDS011;40315;48.620;9.828;2022-10-20T09:24:56;17.60;;;11.57;;
54408;SDS011;40315;48.620;9.828;2022-10-20T09:27:30;15.88;;;11.75;;
54408;SDS011;40315;48.620;9.828;2022-10-20T09:30:10;18.13;;;12.13;;
54408;SDS011;40315;48.620;9.828;2022-10-20T09:32:39;14.50;;;11.55;;
54408;SDS011;40315;48.620;9.828;2022-10-20T09:35:14;16.40;;;12.07;;
54408;SDS011;40315;48.620;9.828;2022-10-20T09:37:49;15.90;;;12.18;;
54408;SDS011;40315;48.620;9.828;2022-10-20T09:40:19;18.48;;;13.23;;
54408;SDS011;40315;48.620;9.828;2022-10-20T09:42:48;18.30;;;13.02;;
54408;SDS011;40315;48.620;9.828;2022-10-20T09:45:26;17.88;;;12.85;;
54408;SDS011;40315;48.620;9.828;2022-10-20T09:48:00;20.92;;;13.85;;
54408;SDS011;40315;48.620;9.828;2022-10-20T09:50:32;22.25;;;15.88;;
54408;SDS011;40315;48.620;9.828;2022-10-20T09:53:06;20.63;;;15.18;;
54408;SDS011;40315;48.620;9.828;2022-10-20T09:55:44;18.42;;;13.05;;
54408;SDS011;40315;48.620;9.828;2022-10-20T09:58:14;20.42;;;13.73;;
54408;SDS011;40315;48.620;9.828;2022-10-20T10:00:53;19.90;;;13.70;;
54408;SDS011;40315;48.620;9.828;2022-10-20T10:03:22;21.10;;;14.55;;
54408;SDS011;40315;48.620;9.828;2022-10-20T10:05:51;23.25;;;16.25;;
54408;SDS011;40315;48.620;9.828;2022-10-20T10:08:22;25.42;;;15.95;;
54408;SDS011;40315;48.620;9.828;2022-10-20T10:10:58;19.33;;;13.88;;
54408;SDS011;40315;48.620;9.828;2022-10-20T10:13:29;20.58;;;15.10;;
54408;SDS011;40315;48.620;9.828;2022-10-20T10:16:00;20.25;;;14.57;;
54408;SDS011;40315;48.620;9.828;2022-10-20T10:18:30;21.73;;;13.82;;
54408;SDS011;40315;48.620;9.828;2022-10-20T10:20:59;19.58;;;14.15;;
54408;SDS011;40315;48.620;9.828;2022-10-20T10:23:29;16.85;;;12.65;;
54408;SDS011;40315;48.620;9.828;2022-10-20T10:25:58;18.90;;;13.38;;
54408;SDS011;40315;48.620;9.828;2022-10-20T10:28:32;18.92;;;12.93;;
54408;SDS011;40315;48.620;9.828;2022-10-20T10:31:05;21.02;;;13.73;;
54408;SDS011;40315;48.620;9.828;2022-10-20T10:33:45;19.67;;;13.75;;
54408;SDS011;40315;48.620;9.828;2022-10-20T10:36:14;17.63;;;12.90;;
54408;SDS011;40315;48.620;9.828;2022-10-20T10:38:47;17.67;;;12.88;;
54408;SDS011;40315;48.620;9.828;2022-10-20T10:41:19;21.17;;;13.63;;
54408;SDS011;40315;48.620;9.828;2022-10-20T10:43:54;18.63;;;13.73;;
54408;SDS011;40315;48.620;9.828;2022-10-20T10:46:31;22.25;;;13.75;;
54408;SDS011;40315;48.620;9.828;2022-10-20T10:51:57;19.33;;;13.00;;
54408;SDS011;40315;48.620;9.828;2022-10-20T10:54:35;19.65;;;13.70;;
54408;SDS011;40315;48.620;9.828;2022-10-20T10:57:22;19.67;;;14.02;;
54408;SDS011;40315;48.620;9.828;2022-10-20T10:59:54;19.70;;;14.07;;
54408;SDS011;40315;48.620;9.828;2022-10-20T11:02:34;22.45;;;14.38;;
54408;SDS011;40315;48.620;9.828;2022-10-20T11:08:27;21.02;;;14.15;;
54408;SDS011;40315;48.620;9.828;2022-10-20T11:11:04;20.50;;;14.30;;
54408;SDS011;40315;48.620;9.828;2022-10-20T11:13:40;20.23;;;14.23;;
54408;SDS011;40315;48.620;9.828;2022-10-20T11:16:19;26.85;;;16.95;;
54408;SDS011;40315;48.620;9.828;2022-10-20T11:21:50;25.00;;;15.45;;
54408;SDS011;40315;48.620;9.828;2022-10-20T11:24:38;23.08;;;15.82;;
54408;SDS011;40315;48.620;9.828;2022-10-20T11:27:12;28.92;;;16.63;;
54408;SDS011;40315;48.620;9.828;2022-10-20T11:29:42;23.17;;;16.00;;
54408;SDS011;40315;48.620;9.828;2022-10-20T11:32:16;24.33;;;15.85;;
54408;SDS011;40315;48.620;9.828;2022-10-20T11:34:52;28.08;;;15.27;;
54408;SDS011;40315;48.620;9.828;2022-10-20T11:37:34;21.50;;;14.48;;
54408;SDS011;40315;48.620;9.828;2022-10-20T11:40:11;20.25;;;14.35;;
54408;SDS011;40315;48.620;9.828;2022-10-20T11:42:49;21.88;;;15.13;;
54408;SDS011;40315;48.620;9.828;2022-10-20T11:45:31;20.88;;;13.98;;
54408;SDS011;40315;48.620;9.828;2022-10-20T11:48:08;20.48;;;14.15;;
54408;SDS011;40315;48.620;9.828;2022-10-20T11:50:41;21.38;;;14.60;;
54408;SDS011;40315;48.620;9.828;2022-10-20T11:53:24;19.52;;;13.23;;
54408;SDS011;40315;48.620;9.828;2022-10-20T11:56:10;20.80;;;13.82;;
54408;SDS011;40315;48.620;9.828;2022-10-20T12:02:17;20.30;;;14.00;;
54408;SDS011;40315;48.620;9.828;2022-10-20T12:05:06;16.88;;;12.48;;
54408;SDS011;40315;48.620;9.828;2022-10-20T12:10:48;18.42;;;13.48;;
54408;SDS011;40315;48.620;9.828;2022-10-20T12:13:25;19.38;;;13.35;;
54408;SDS011;40315;48.620;9.828;2022-10-20T12:16:02;18.77;;;13.38;;
54408;SDS011;40315;48.620;9.828;2022-10-20T12:18:30;21.70;;;14.43;;
54408;SDS011;40315;48.620;9.828;2022-10-20T12:20:59;21.13;;;14.65;;
54408;SDS011;40315;48.620;9.828;2022-10-20T12:29:49;21.30;;;15.70;;
54408;SDS011;40315;48.620;9.828;2022-10-20T12:35:26;22.38;;;15.73;;
54408;SDS011;40315;48.620;9.828;2022-10-20T12:37:56;24.10;;;15.43;;
54408;SDS011;40315;48.620;9.828;2022-10-20T12:40:27;26.02;;;15.50;;
54408;SDS011;40315;48.620;9.828;2022-10-20T12:42:57;23.58;;;16.77;;
54408;SDS011;40315;48.620;9.828;2022-10-20T12:45:28;25.75;;;16.92;;
54408;SDS011;40315;48.620;9.828;2022-10-20T12:48:05;25.05;;;15.48;;
54408;SDS011;40315;48.620;9.828;2022-10-20T12:50:35;23.42;;;16.48;;
54408;SDS011;40315;48.620;9.828;2022-10-20T12:53:09;26.30;;;16.85;;
54408;SDS011;40315;48.620;9.828;2022-10-20T12:55:39;25.45;;;16.48;;
54408;SDS011;40315;48.620;9.828;2022-10-20T12:58:11;26.42;;;17.63;;
54408;SDS011;40315;48.620;9.828;2022-10-20T13:01:03;22.33;;;15.88;;
54408;SDS011;40315;48.620;9.828;2022-10-20T13:03:35;24.52;;;17.55;;
54408;SDS011;40315;48.620;9.828;2022-10-20T13:12:26;24.65;;;17.67;;
54408;SDS011;40315;48.620;9.828;2022-10-20T13:14:55;25.83;;;17.90;;
54408;SDS011;40315;48.620;9.828;2022-10-20T13:17:30;24.58;;;16.50;;
54408;SDS011;40315;48.620;9.828;2022-10-20T13:20:17;23.90;;;15.48;;
54408;SDS011;40315;48.620;9.828;2022-10-20T13:22:50;25.23;;;16.90;;
54408;SDS011;40315;48.620;9.828;2022-10-20T13:25:33;27.33;;;17.20;;
54408;SDS011;40315;48.620;9.828;2022-10-20T13:28:03;24.20;;;15.75;;
54408;SDS011;40315;48.620;9.828;2022-10-20T13:30:32;23.67;;;15.80;;
54408;SDS011;40315;48.620;9.828;2022-10-20T13:33:02;23.92;;;17.13;;
54408;SDS011;40315;48.620;9.828;2022-10-20T13:35:36;27.08;;;17.23;;
54408;SDS011;40315;48.620;9.828;2022-10-20T13:38:11;24.75;;;16.58;;
54408;SDS011;40315;48.620;9.828;2022-10-20T13:40:47;23.70;;;16.63;;
54408;SDS011;40315;48.620;9.828;2022-10-20T13:43:23;22.75;;;16.10;;
54408;SDS011;40315;48.620;9.828;2022-10-20T13:46:11;24.08;;;16.60;;
54408;SDS011;40315;48.620;9.828;2022-10-20T13:49:01;23.40;;;15.95;;
54408;SDS011;40315;48.620;9.828;2022-10-20T13:51:39;25.88;;;16.38;;
54408;SDS011;40315;48.620;9.828;2022-10-20T13:54:12;26.05;;;16.27;;
54408;SDS011;40315;48.620;9.828;2022-10-20T13:56:48;24.40;;;16.25;;
54408;SDS011;40315;48.620;9.828;2022-10-20T13:59:20;28.45;;;18.00;;
54408;SDS011;40315;48.620;9.828;2022-10-20T14:01:49;21.90;;;16.08;;
54408;SDS011;40315;48.620;9.828;2022-10-20T14:04:21;28.00;;;16.70;;
54408;SDS011;40315;48.620;9.828;2022-10-20T14:06:54;28.60;;;17.40;;
54408;SDS011;40315;48.620;9.828;2022-10-20T14:09:29;24.60;;;16.13;;
54408;SDS011;40315;48.620;9.828;2022-10-20T14:11:59;26.42;;;16.55;;
54408;SDS011;40315;48.620;9.828;2022-10-20T14:14:29;30.33;;;18.88;;
54408;SDS011;40315;48.620;9.828;2022-10-20T14:16:57;28.40;;;19.30;;
54408;SDS011;40315;48.620;9.828;2022-10-20T14:19:26;30.20;;;19.77;;
54408;SDS011;40315;48.620;9.828;2022-10-20T14:22:08;31.15;;;21.35;;
54408;SDS011;40315;48.620;9.828;2022-10-20T14:24:39;31.67;;;19.45;;
54408;SDS011;40315;48.620;9.828;2022-10-20T14:27:12;26.33;;;18.65;;
54408;SDS011;40315;48.620;9.828;2022-10-20T14:29:42;25.05;;;17.65;;
54408;SDS011;40315;48.620;9.828;2022-10-20T14:32:14;25.70;;;17.92;;
54408;SDS011;40315;48.620;9.828;2022-10-20T14:34:52;27.23;;;17.20;;
54408;SDS011;40315;48.620;9.828;2022-10-20T14:37:23;21.98;;;15.75;;
54408;SDS011;40315;48.620;9.828;2022-10-20T14:39:57;22.40;;;15.77;;
54408;SDS011;40315;48.620;9.828;2022-10-20T14:42:27;21.80;;;15.68;;
54408;SDS011;40315;48.620;9.828;2022-10-20T14:44:56;21.02;;;15.57;;
54408;SDS011;40315;48.620;9.828;2022-10-20T14:47:25;20.48;;;15.05;;
54408;SDS011;40315;48.620;9.828;2022-10-20T14:49:57;23.55;;;16.23;;
54408;SDS011;40315;48.620;9.828;2022-10-20T14:52:28;23.50;;;17.17;;
54408;SDS011;40315;48.620;9.828;2022-10-20T14:54:59;23.73;;;16.67;;
54408;SDS011;40315;48.620;9.828;2022-10-20T14:57:30;23.30;;;17.00;;
54408;SDS011;40315;48.620;9.828;2022-10-20T15:03:01;23.73;;;17.08;;
54408;SDS011;40315;48.620;9.828;2022-10-20T15:05:32;25.45;;;17.95;;
54408;SDS011;40315;48.620;9.828;2022-10-20T15:08:08;23.45;;;16.63;;
54408;SDS011;40315;48.620;9.828;2022-10-20T15:10:41;25.45;;;16.98;;
54408;SDS011;40315;48.620;9.828;2022-10-20T15:13:16;33.83;;;23.10;;
54408;SDS011;40315;48.620;9.828;2022-10-20T15:15:49;34.17;;;22.42;;
54408;SDS011;40315;48.620;9.828;2022-10-20T15:18:19;32.50;;;21.85;;
54408;SDS011;40315;48.620;9.828;2022-10-20T15:20:51;31.10;;;20.35;;
54408;SDS011;40315;48.620;9.828;2022-10-20T15:23:21;27.60;;;20.40;;
54408;SDS011;40315;48.620;9.828;2022-10-20T15:25:50;28.27;;;20.15;;
54408;SDS011;40315;48.620;9.828;2022-10-20T15:28:29;26.30;;;18.90;;
54408;SDS011;40315;48.620;9.828;2022-10-20T15:31:00;30.35;;;19.35;;